Time;durP1;ratioP1;P1;durP2;ratioP2;P2;SDS_P1;SDS_P2;PMS_P1;PMS_P2;Temp;Humidity;BMP_temperature;BMP_pressure;BME280_temperature;BME280_humidity;BME280_pressure;Samples;Min_cycle;Max_cycle;Signal;HPM_P1;HPM_P2
2020/12/01 00:02:05;;;;;;;4.20;0.60;;;;;;;4.85;100.00;100560.00;5035662;28;20188;-81
2020/12/01 00:04:31;;;;;;;2.67;0.50;;;;;;;4.75;100.00;100560.31;5039082;28;20179;-80
2020/12/01 00:06:56;;;;;;;2.33;0.50;;;;;;;4.77;100.00;100557.34;5053130;28;20241;-80
2020/12/01 00:09:21;;;;;;;8.50;1.10;;;;;;;4.67;100.00;100555.00;5023671;28;20277;-79
2020/12/01 00:11:47;;;;;;;4.67;0.90;;;;;;;4.78;100.00;100559.69;5023836;28;20210;-80
2020/12/01 00:14:12;;;;;;;2.70;0.60;;;;;;;4.69;100.00;100552.78;5043584;28;20207;-81
2020/12/01 00:16:38;;;;;;;2.40;0.40;;;;;;;4.64;100.00;100547.66;5034131;28;20194;-81
2020/12/01 00:19:04;;;;;;;2.33;0.57;;;;;;;4.60;100.00;100552.84;5041776;28;20203;-81
2020/12/01 00:21:29;;;;;;;2.60;0.60;;;;;;;4.58;100.00;100552.38;5050293;28;20268;-82
2020/12/01 00:23:55;;;;;;;2.83;0.90;;;;;;;4.46;100.00;100533.56;5035257;28;20681;-78
2020/12/01 00:26:21;;;;;;;2.33;0.60;;;;;;;4.48;100.00;100539.38;5066476;28;20194;-80
2020/12/01 00:28:48;;;;;;;2.17;0.50;;;;;;;4.58;100.00;100533.69;5056915;28;20724;-82
2020/12/01 00:31:15;;;;;;;2.73;0.50;;;;;;;4.61;100.00;100530.38;5049491;28;20248;-80
2020/12/01 00:33:40;;;;;;;3.17;0.80;;;;;;;4.69;100.00;100539.47;5026619;28;21061;-82
2020/12/01 00:36:07;;;;;;;2.77;0.80;;;;;;;4.70;100.00;100536.50;5048488;28;20437;-81
2020/12/01 00:38:33;;;;;;;2.70;0.57;;;;;;;4.70;100.00;100536.50;5047068;28;20180;-82
2020/12/01 00:40:58;;;;;;;1.93;0.47;;;;;;;4.91;100.00;100525.91;5044422;28;20446;-81
2020/12/01 00:43:24;;;;;;;2.90;0.70;;;;;;;4.92;100.00;100528.25;5030038;28;20204;-81
2020/12/01 00:45:49;;;;;;;4.60;0.83;;;;;;;4.89;100.00;100525.44;5044174;28;20666;-79
2020/12/01 00:48:16;;;;;;;2.50;0.63;;;;;;;4.97;100.00;100520.09;5047417;28;20662;-81
2020/12/01 00:50:43;;;;;;;1.80;0.40;;;;;;;4.99;100.00;100517.88;5022723;28;20677;-80
2020/12/01 00:53:10;;;;;;;2.97;0.70;;;;;;;4.99;100.00;100523.22;5050213;28;20474;-82
2020/12/01 00:55:35;;;;;;;3.30;0.57;;;;;;;4.87;100.00;100520.44;5043022;28;20440;-78
2020/12/01 00:58:01;;;;;;;1.83;0.37;;;;;;;4.81;100.00;100521.72;5033200;28;20446;-82
2020/12/01 01:00:29;;;;;;;3.00;0.60;;;;;;;4.79;100.00;100523.91;5034273;28;20180;-79
2020/12/01 01:03:07;;;;;;;1.80;0.30;;;;;;;4.88;100.00;100511.31;5048290;28;20468;-82
2020/12/01 01:05:32;;;;;;;2.90;0.63;;;;;;;4.97;100.00;100506.75;5035432;28;20624;-82
2020/12/01 01:07:58;;;;;;;3.77;1.00;;;;;;;4.83;100.00;100514.19;5019168;28;20180;-81
2020/12/01 01:10:30;;;;;;;1.83;0.50;;;;;;;4.70;100.00;100515.16;5023452;28;20260;-82
2020/12/01 01:12:56;;;;;;;2.63;0.70;;;;;;;4.78;100.00;100501.00;5050903;28;20745;-82
2020/12/01 01:15:28;;;;;;;2.23;0.53;;;;;;;4.81;100.00;100505.72;5046941;28;20472;-81
2020/12/01 01:17:55;;;;;;;2.33;0.43;;;;;;;4.89;100.00;100501.44;5038699;28;20468;-79
2020/12/01 01:20:21;;;;;;;2.00;0.27;;;;;;;4.88;100.00;100506.00;5046199;28;20430;-80
2020/12/01 01:22:46;;;;;;;3.23;0.63;;;;;;;4.80;100.00;100512.13;5032556;28;21025;-81
2020/12/01 01:25:12;;;;;;;2.90;0.80;;;;;;;4.83;100.00;100508.84;5034861;28;20615;-82
2020/12/01 01:27:38;;;;;;;8.03;0.90;;;;;;;4.82;100.00;100501.94;5034109;28;20183;-79
2020/12/01 01:30:05;;;;;;;2.33;0.30;;;;;;;4.87;100.00;100507.09;5044030;28;20447;-82
2020/12/01 01:32:31;;;;;;;2.53;0.63;;;;;;;4.93;100.00;100508.50;5051764;28;20211;-82
2020/12/01 01:34:56;;;;;;;3.23;0.80;;;;;;;4.99;100.00;100517.09;5051379;28;20430;-82
2020/12/01 01:37:22;;;;;;;4.03;0.77;;;;;;;4.92;100.00;100504.25;5026582;28;20192;-78
2020/12/01 01:39:48;;;;;;;2.60;0.63;;;;;;;5.03;100.00;100507.34;5040265;28;20666;-82
2020/12/01 01:42:14;;;;;;;2.40;0.73;;;;;;;5.10;100.00;100507.63;5053534;28;20183;-80
2020/12/01 01:44:40;;;;;;;2.43;0.50;;;;;;;5.03;100.00;100507.34;5058325;28;20629;-81
2020/12/01 01:47:22;;;;;;;3.00;0.90;;;;;;;5.09;100.00;100504.16;5047544;28;20441;-82
2020/12/01 01:49:53;;;;;;;2.10;0.43;;;;;;;5.16;100.00;100503.66;5054805;28;20714;-82
2020/12/01 01:52:30;;;;;;;2.80;0.83;;;;;;;5.11;100.00;100520.63;5038185;28;20560;-82
2020/12/01 01:55:01;;;;;;;2.73;0.80;;;;;;;4.97;100.00;100514.75;5054871;28;20441;-81
2020/12/01 01:57:29;;;;;;;2.37;0.60;;;;;;;4.92;100.00;100514.91;5042902;28;20955;-82
2020/12/01 01:59:57;;;;;;;2.40;0.60;;;;;;;5.05;100.00;100511.25;5049427;28;20488;-80
2020/12/01 02:02:23;;;;;;;4.50;1.40;;;;;;;5.07;100.00;100513.63;5055359;28;20537;-79
2020/12/01 02:04:48;;;;;;;4.03;1.07;;;;;;;4.83;100.00;100503.50;5049033;28;20458;-82
2020/12/01 02:07:14;;;;;;;2.07;0.30;;;;;;;4.98;100.00;100505.63;5055121;28;20468;-82
2020/12/01 02:09:46;;;;;;;2.10;0.50;;;;;;;5.11;100.00;100499.28;5039204;28;20207;-82
2020/12/01 02:12:15;;;;;;;2.67;0.53;;;;;;;5.09;100.00;100503.41;5035539;28;20192;-82
2020/12/01 02:14:49;;;;;;;2.50;0.60;;;;;;;4.93;100.00;100495.16;5039669;28;20476;-80
2020/12/01 02:17:20;;;;;;;3.13;0.87;;;;;;;4.97;100.00;100495.28;5059379;28;20445;-79
2020/12/01 02:19:47;;;;;;;2.63;0.80;;;;;;;5.08;100.00;100493.81;5049925;28;20468;-81
2020/12/01 02:22:15;;;;;;;2.70;0.43;;;;;;;5.17;100.00;100498.00;5030142;28;20426;-81
2020/12/01 02:24:42;;;;;;;2.53;0.60;;;;;;;5.20;100.00;100502.72;5026863;28;20438;-80
2020/12/01 02:27:11;;;;;;;2.30;0.67;;;;;;;4.96;100.00;100497.16;5051040;28;20442;-82
2020/12/01 02:29:37;;;;;;;1.90;0.70;;;;;;;4.88;100.00;100495.31;5057386;28;20453;-79
2020/12/01 02:32:05;;;;;;;2.63;0.50;;;;;;;4.85;100.00;100495.97;5049523;28;20441;-80
2020/12/01 02:34:34;;;;;;;2.63;0.70;;;;;;;4.94;100.00;100494.03;5035711;28;20450;-80
2020/12/01 02:37:01;;;;;;;1.90;0.40;;;;;;;4.93;100.00;100497.03;5022483;28;20844;-82
2020/12/01 02:39:28;;;;;;;2.63;0.47;;;;;;;5.14;100.00;100501.34;5036742;28;20800;-82
2020/12/01 02:41:59;;;;;;;2.10;0.50;;;;;;;5.04;100.00;100493.69;5041017;28;20448;-79
2020/12/01 02:44:26;;;;;;;4.07;0.57;;;;;;;4.98;100.00;100489.63;5032704;28;20458;-82
2020/12/01 02:46:53;;;;;;;2.57;0.70;;;;;;;5.10;100.00;100489.72;5051330;28;20426;-83
2020/12/01 02:49:19;;;;;;;2.07;0.33;;;;;;;5.16;100.00;100485.00;5041181;28;20553;-80
2020/12/01 02:51:46;;;;;;;2.80;0.60;;;;;;;5.24;100.00;100486.84;5029386;28;21001;-80
2020/12/01 02:54:11;;;;;;;2.93;0.80;;;;;;;5.09;100.00;100498.81;5063652;28;20976;-81
2020/12/01 02:56:37;;;;;;;2.23;0.40;;;;;;;4.83;100.00;100492.84;5053926;28;20488;-81
2020/12/01 02:59:03;;;;;;;2.00;0.50;;;;;;;4.95;100.00;100495.63;5049302;28;20661;-82
2020/12/01 03:01:29;;;;;;;2.47;0.43;;;;;;;5.12;100.00;100495.53;5043455;28;20251;-82
2020/12/01 03:03:54;;;;;;;3.00;0.50;;;;;;;5.23;100.00;100496.72;5064390;28;20453;-78
2020/12/01 03:06:21;;;;;;;2.57;0.47;;;;;;;5.24;100.00;100486.84;5042320;28;20176;-81
2020/12/01 03:08:48;;;;;;;3.20;0.80;;;;;;;5.26;100.00;100496.09;5057883;28;20184;-82
2020/12/01 03:11:13;;;;;;;3.10;0.63;;;;;;;5.22;100.00;100489.84;5041695;28;20461;-80
2020/12/01 03:13:39;;;;;;;2.80;0.50;;;;;;;5.18;100.00;100488.91;5035586;28;20984;-82
2020/12/01 03:16:09;;;;;;;4.30;0.90;;;;;;;5.09;100.00;100490.81;5029043;28;20491;-83
2020/12/01 03:18:43;;;;;;;2.27;0.63;;;;;;;5.09;100.00;100493.50;5050792;28;20369;-81
2020/12/01 03:21:10;;;;;;;2.70;0.70;;;;;;;5.10;100.00;100491.63;5047679;28;20434;-82
2020/12/01 03:23:36;;;;;;;1.70;0.20;;;;;;;5.16;100.00;100488.44;5024646;28;20446;-81
2020/12/01 03:26:02;;;;;;;2.37;0.53;;;;;;;5.14;100.00;100485.31;5040735;28;20445;-79
2020/12/01 03:28:28;;;;;;;1.73;0.40;;;;;;;5.07;100.00;100489.59;5033654;28;20183;-79
2020/12/01 03:30:54;;;;;;;3.60;1.00;;;;;;;4.98;100.00;100484.28;5038035;28;20466;-80
2020/12/01 03:33:20;;;;;;;2.53;0.70;;;;;;;5.00;100.00;100482.09;5049005;28;21018;-80
2020/12/01 03:35:45;;;;;;;3.60;0.63;;;;;;;5.03;100.00;100480.66;5021489;28;20522;-82
2020/12/01 03:38:11;;;;;;;2.47;0.57;;;;;;;5.05;100.00;100489.13;5029895;28;20495;-82
2020/12/01 03:40:37;;;;;;;2.77;0.57;;;;;;;5.04;100.00;100488.34;5036376;28;20171;-82
2020/12/01 03:43:03;;;;;;;3.50;0.47;;;;;;;5.13;100.00;100494.41;5021873;28;21076;-80
2020/12/01 03:45:28;;;;;;;2.00;0.43;;;;;;;5.15;100.00;100494.88;5030379;28;20211;-81
2020/12/01 03:47:55;;;;;;;2.00;0.37;;;;;;;5.03;100.00;100494.00;5045697;28;20179;-79
2020/12/01 03:50:23;;;;;;;3.63;0.67;;;;;;;4.92;100.00;100493.56;5046125;28;20191;-81
2020/12/01 03:52:48;;;;;;;2.33;0.60;;;;;;;5.03;100.00;100491.34;5028629;28;20469;-80
2020/12/01 03:55:14;;;;;;;3.57;1.03;;;;;;;5.14;100.00;100490.66;5042149;28;20508;-79
2020/12/01 03:57:42;;;;;;;3.00;0.73;;;;;;;5.12;100.00;100500.09;5036097;28;20183;-82
2020/12/01 04:00:11;;;;;;;3.30;0.60;;;;;;;5.05;100.00;100491.81;5038607;28;20180;-81
2020/12/01 04:02:37;;;;;;;3.40;0.87;;;;;;;5.16;100.00;100496.47;5017432;28;20545;-82
2020/12/01 04:05:05;;;;;;;3.57;0.70;;;;;;;5.15;100.00;100499.44;5036655;28;20439;-82
2020/12/01 04:07:32;;;;;;;1.83;0.50;;;;;;;5.18;100.00;100496.13;5040194;28;20188;-80
2020/12/01 04:09:58;;;;;;;2.63;0.60;;;;;;;5.08;100.00;100497.28;5043867;28;20972;-81
2020/12/01 04:12:44;;;;;;;3.10;0.60;;;;;;;5.17;100.00;100495.34;5027099;28;20453;-81
2020/12/01 04:15:11;;;;;;;2.47;0.63;;;;;;;5.34;100.00;100495.22;5022725;28;20445;-81
2020/12/01 04:17:37;;;;;;;2.97;0.60;;;;;;;5.19;100.00;100495.81;5028371;28;20804;-81
2020/12/01 04:20:04;;;;;;;2.10;0.60;;;;;;;5.13;100.00;100499.00;5040663;28;20454;-80
2020/12/01 04:22:30;;;;;;;2.23;0.70;;;;;;;5.17;100.00;100502.56;5028023;28;20212;-82
2020/12/01 04:24:55;;;;;;;2.47;0.47;;;;;;;5.16;100.00;100509.00;5018534;28;20426;-82
2020/12/01 04:27:21;;;;;;;3.77;0.80;;;;;;;5.12;100.00;100500.88;5017251;28;20195;-81
2020/12/01 04:29:47;;;;;;;2.43;0.47;;;;;;;5.19;100.00;100501.13;5015656;28;20329;-81
2020/12/01 04:32:12;;;;;;;2.00;0.40;;;;;;;5.33;100.00;100495.56;5017998;28;20198;-83
2020/12/01 04:34:38;;;;;;;2.10;0.50;;;;;;;5.28;100.00;100496.53;5030430;28;20566;-83
2020/12/01 04:37:04;;;;;;;3.37;0.77;;;;;;;5.27;100.00;100502.19;5038003;28;20191;-80
2020/12/01 04:39:30;;;;;;;2.60;0.73;;;;;;;5.26;100.00;100504.09;5029062;28;20187;-82
2020/12/01 04:41:56;;;;;;;2.23;0.40;;;;;;;5.27;100.00;100508.31;5029050;28;20556;-79
2020/12/01 04:44:38;;;;;;;2.43;0.50;;;;;;;5.37;100.00;100507.94;5043958;28;20206;-84
2020/12/01 04:47:22;;;;;;;3.43;0.80;;;;;;;5.35;100.00;100510.16;5026162;28;20453;-81
2020/12/01 04:50:19;;;;;;;2.43;0.40;;;;;;;5.17;100.00;100522.03;5020898;28;20465;-82
2020/12/01 04:53:07;;;;;;;1.67;0.37;;;;;;;5.32;100.00;100520.72;5016495;28;20471;-81
2020/12/01 04:56:15;;;;;;;2.43;0.80;;;;;;;5.32;100.00;100521.47;5033021;28;20456;-81
2020/12/01 04:58:43;;;;;;;3.87;0.60;;;;;;;5.39;100.00;100507.63;5043549;28;20463;-82
2020/12/01 05:01:32;;;;;;;2.00;0.40;;;;;;;5.45;100.00;100509.78;5040102;28;20437;-80
2020/12/01 05:03:57;;;;;;;2.00;0.50;;;;;;;5.40;100.00;100520.63;5046928;28;20470;-82
2020/12/01 05:07:07;;;;;;;1.80;0.30;;;;;;;5.29;100.00;100524.00;5045702;28;20437;-81
2020/12/01 05:09:42;;;;;;;2.37;0.57;;;;;;;5.42;100.00;100518.44;5026492;28;20688;-83
2020/12/01 05:12:17;;;;;;;4.60;0.83;;;;;;;5.50;100.00;100525.63;5050699;28;20450;-82
2020/12/01 05:15:08;;;;;;;1.70;0.40;;;;;;;5.60;100.00;100523.66;5052373;28;20440;-83
2020/12/01 05:18:16;;;;;;;3.87;0.90;;;;;;;5.54;100.00;100531.09;5045579;28;20433;-80
2020/12/01 05:20:44;;;;;;;2.23;0.30;;;;;;;5.35;100.00;100526.19;5051389;28;20421;-81
2020/12/01 05:23:12;;;;;;;2.47;0.53;;;;;;;5.48;100.00;100541.19;5037814;28;20979;-82
2020/12/01 05:25:38;;;;;;;1.90;0.50;;;;;;;5.30;100.00;100541.59;5045957;28;20446;-82
2020/12/01 05:28:05;;;;;;;2.23;0.67;;;;;;;5.31;100.00;100549.28;5048019;28;20524;-81
2020/12/01 05:30:31;;;;;;;3.00;0.70;;;;;;;5.27;100.00;100543.03;5052358;28;20222;-82
2020/12/01 05:32:59;;;;;;;1.97;0.30;;;;;;;5.28;100.00;100544.56;5051832;28;20460;-81
2020/12/01 05:35:29;;;;;;;2.63;0.70;;;;;;;5.37;100.00;100545.31;5047404;28;20179;-82
2020/12/01 05:38:16;;;;;;;1.80;0.43;;;;;;;5.48;100.00;100549.19;5049190;28;20503;-82
2020/12/01 05:40:51;;;;;;;3.83;1.10;;;;;;;5.33;100.00;100549.75;5048477;28;20589;-82
2020/12/01 05:43:27;;;;;;;3.07;0.60;;;;;;;5.46;100.00;100561.28;5048328;28;20464;-82
2020/12/01 05:46:25;;;;;;;2.27;0.43;;;;;;;5.39;100.00;100551.13;5054829;28;20465;-83
2020/12/01 05:49:22;;;;;;;2.13;0.43;;;;;;;5.30;100.00;100560.28;5057181;28;20828;-83
2020/12/01 05:51:57;;;;;;;2.77;0.70;;;;;;;5.27;100.00;100560.91;5044607;28;20434;-80
2020/12/01 05:54:36;;;;;;;1.63;0.33;;;;;;;5.35;100.00;100576.91;5033079;28;20547;-81
2020/12/01 05:57:03;;;;;;;2.70;0.60;;;;;;;5.46;100.00;100572.75;5028582;28;20492;-82
2020/12/01 05:59:28;;;;;;;2.37;0.50;;;;;;;5.50;100.00;100571.00;5028059;28;21153;-81
2020/12/01 06:02:01;;;;;;;2.97;0.73;;;;;;;5.35;100.00;100570.78;5053394;28;20456;-79
2020/12/01 06:04:26;;;;;;;2.47;0.40;;;;;;;5.33;100.00;100586.31;5055359;28;20621;-81
2020/12/01 06:07:12;;;;;;;2.33;0.73;;;;;;;5.40;100.00;100582.03;5032250;28;20472;-79
2020/12/01 06:09:54;;;;;;;4.10;0.73;;;;;;;5.35;100.00;100600.94;5016635;28;20457;-79
2020/12/01 06:12:31;;;;;;;2.03;0.50;;;;;;;5.36;100.00;100596.38;5037918;28;20458;-82
2020/12/01 06:15:17;;;;;;;3.00;0.60;;;;;;;5.36;100.00;100591.03;5045179;28;20441;-82
2020/12/01 06:17:52;;;;;;;2.30;0.47;;;;;;;5.44;100.00;100601.66;5049158;28;20961;-82
2020/12/01 06:20:28;;;;;;;2.37;0.73;;;;;;;5.47;100.00;100603.72;5026804;28;20496;-80
2020/12/01 06:23:25;;;;;;;2.13;0.57;;;;;;;5.47;100.00;100605.59;5017306;28;20469;-80
2020/12/01 06:26:12;;;;;;;1.30;0.10;;;;;;;5.40;100.00;100611.41;5046962;28;20513;-80
2020/12/01 06:29:06;;;;;;;1.87;0.40;;;;;;;5.50;100.00;100612.94;5060209;28;20453;-81
2020/12/01 06:32:05;;;;;;;2.13;0.43;;;;;;;5.49;100.00;100606.06;5044021;28;20440;-82
2020/12/01 06:34:57;;;;;;;3.33;1.13;;;;;;;5.41;100.00;100609.53;5055784;28;20441;-80
2020/12/01 06:37:27;;;;;;;1.57;0.23;;;;;;;5.48;100.00;100609.81;5043327;28;20432;-80
2020/12/01 06:40:18;;;;;;;2.63;0.50;;;;;;;5.53;100.00;100617.66;5064243;28;20486;-81
2020/12/01 06:42:53;;;;;;;1.67;0.60;;;;;;;5.61;100.00;100621.38;5026327;28;20584;-80
2020/12/01 06:45:27;;;;;;;2.53;0.63;;;;;;;5.66;100.00;100618.53;5037840;28;20441;-80
2020/12/01 06:48:02;;;;;;;2.30;0.73;;;;;;;5.61;100.00;100613.38;5035556;28;20461;-78
2020/12/01 06:50:28;;;;;;;2.73;0.70;;;;;;;5.75;100.00;100625.38;5043798;28;20460;-80
2020/12/01 06:53:01;;;;;;;3.73;0.37;;;;;;;5.79;100.00;100631.66;5056423;28;20477;-80
2020/12/01 06:55:54;;;;;;;4.33;0.70;;;;;;;5.74;100.00;100628.38;5047371;28;20528;-82
2020/12/01 06:58:25;;;;;;;3.20;0.70;;;;;;;5.80;100.00;100637.78;5041469;28;20437;-82
2020/12/01 07:01:21;;;;;;;3.00;0.70;;;;;;;5.69;100.00;100639.25;5044802;28;20426;-80
2020/12/01 07:03:59;;;;;;;2.03;0.30;;;;;;;5.64;100.00;100642.88;5020350;28;20454;-80
2020/12/01 07:06:24;;;;;;;3.00;0.80;;;;;;;5.52;100.00;100644.69;5023041;28;20652;-83
2020/12/01 07:08:50;;;;;;;3.37;0.77;;;;;;;5.65;100.00;100649.03;5030588;28;21021;-80
2020/12/01 07:11:32;;;;;;;1.87;0.47;;;;;;;5.64;100.00;100650.09;5032592;28;20264;-82
2020/12/01 07:14:01;;;;;;;2.33;0.60;;;;;;;5.73;100.00;100651.63;5039427;28;20505;-82
2020/12/01 07:16:37;;;;;;;2.83;0.60;;;;;;;5.77;100.00;100655.22;5041807;28;20499;-81
2020/12/01 07:19:13;;;;;;;2.73;0.60;;;;;;;5.56;100.00;100659.72;5027681;28;21291;-83
2020/12/01 07:21:43;;;;;;;2.33;0.43;;;;;;;5.56;100.00;100659.72;5021878;28;20481;-82
2020/12/01 07:24:19;;;;;;;2.80;0.70;;;;;;;5.61;100.00;100678.25;5032059;28;20510;-81
2020/12/01 07:27:18;;;;;;;1.80;0.53;;;;;;;5.56;100.00;100673.09;5013404;28;21040;-81
2020/12/01 07:29:52;;;;;;;1.87;0.43;;;;;;;5.65;100.00;100686.41;5041810;28;20453;-79
2020/12/01 07:32:28;;;;;;;2.13;0.50;;;;;;;5.71;100.00;100682.47;5031995;28;20445;-82
2020/12/01 07:35:11;;;;;;;2.13;0.40;;;;;;;5.81;100.00;100685.53;5020392;28;20666;-82
2020/12/01 07:37:55;;;;;;;2.90;0.63;;;;;;;5.67;100.00;100692.22;5033856;28;20525;-83
2020/12/01 07:40:27;;;;;;;3.03;0.80;;;;;;;5.64;100.00;100692.84;5041785;28;20473;-81
2020/12/01 07:43:04;;;;;;;2.33;0.40;;;;;;;5.75;100.00;100699.41;5030157;28;20532;-84
2020/12/01 07:45:31;;;;;;;2.17;0.60;;;;;;;5.75;100.00;100694.06;5042644;28;20448;-83
2020/12/01 07:48:00;;;;;;;1.80;0.50;;;;;;;5.83;100.00;100695.91;5027841;28;20437;-84
2020/12/01 07:50:28;;;;;;;2.40;0.67;;;;;;;5.58;100.00;100700.25;5038533;28;21043;-82
2020/12/01 07:53:01;;;;;;;2.57;0.60;;;;;;;5.62;100.00;100705.72;5035046;28;20453;-80
2020/12/01 07:55:32;;;;;;;1.97;0.50;;;;;;;5.74;100.00;100711.97;5044063;28;21005;-82
2020/12/01 07:58:13;;;;;;;3.10;0.70;;;;;;;5.80;100.00;100716.03;5059839;28;20800;-82
2020/12/01 08:00:39;;;;;;;3.40;0.53;;;;;;;5.85;100.00;100721.22;5048837;28;20517;-81
2020/12/01 08:03:14;;;;;;;2.47;0.67;;;;;;;5.79;100.00;100719.03;5041178;28;20526;-83
2020/12/01 08:05:59;;;;;;;2.30;0.30;;;;;;;5.82;100.00;100729.06;5038784;28;20591;-82
2020/12/01 08:08:30;;;;;;;3.17;0.77;;;;;;;5.71;100.00;100725.97;5034818;28;20896;-81
2020/12/01 08:10:56;;;;;;;2.30;0.63;;;;;;;5.80;100.00;100729.41;5013990;28;20876;-81
2020/12/01 08:13:22;;;;;;;2.07;0.30;;;;;;;5.70;100.00;100731.63;5019281;28;20525;-81
2020/12/01 08:15:57;;;;;;;1.73;0.30;;;;;;;5.79;100.00;100737.75;5038533;28;20450;-83
2020/12/01 08:18:23;;;;;;;1.67;0.23;;;;;;;5.72;100.00;100732.09;5019380;28;20255;-79
2020/12/01 08:20:49;;;;;;;4.07;0.80;;;;;;;5.70;100.00;100739.66;5013323;28;20422;-80
2020/12/01 08:23:20;;;;;;;2.43;0.60;;;;;;;5.78;100.00;100746.84;5023339;28;20603;-80
2020/12/01 08:25:55;;;;;;;2.40;0.27;;;;;;;5.88;100.00;100750.00;5007481;28;20203;-81
2020/12/01 08:28:26;;;;;;;2.43;0.40;;;;;;;5.96;100.00;100764.44;5042654;28;20537;-81
2020/12/01 08:31:06;;;;;;;4.60;0.93;;;;;;;5.97;100.00;100766.78;5041115;22;20487;-82
2020/12/01 08:33:58;;;;;;;3.60;0.73;;;;;;;5.97;100.00;100772.13;5017121;28;20446;-82
2020/12/01 08:36:35;;;;;;;2.37;0.63;;;;;;;5.95;100.00;100771.66;4991291;28;20471;-79
2020/12/01 08:39:22;;;;;;;2.87;0.87;;;;;;;6.01;100.00;100780.28;4995678;28;20450;-78
2020/12/01 08:42:03;;;;;;;2.63;0.70;;;;;;;5.96;100.00;100785.81;5008751;28;20472;-77
2020/12/01 08:44:56;;;;;;;3.03;0.80;;;;;;;5.99;100.00;100785.16;5008041;28;20817;-78
2020/12/01 08:47:24;;;;;;;2.43;0.53;;;;;;;5.97;100.00;100784.69;5004583;28;20471;-78
2020/12/01 08:49:51;;;;;;;3.10;0.30;;;;;;;6.10;100.00;100795.16;5009666;28;20474;-79
2020/12/01 08:52:35;;;;;;;2.37;0.93;;;;;;;6.06;100.00;100801.47;5005587;28;20573;-80
2020/12/01 08:55:25;;;;;;;3.27;0.50;;;;;;;6.05;100.00;100805.25;5004999;28;20443;-79
2020/12/01 08:58:04;;;;;;;2.27;0.60;;;;;;;6.08;100.00;100817.97;5004708;28;20450;-80
2020/12/01 09:00:33;;;;;;;2.23;0.50;;;;;;;6.08;100.00;100815.28;4991439;28;20431;-79
2020/12/01 09:03:07;;;;;;;2.63;0.60;;;;;;;6.07;100.00;100813.75;5003368;28;20505;-79
2020/12/01 09:05:35;;;;;;;4.80;0.70;;;;;;;6.08;100.00;100824.09;5004885;28;20465;-78
2020/12/01 09:22:21;;;;;;;2.10;0.40;;;;;;;6.12;100.00;100842.94;5013631;28;20443;-78
2020/12/01 09:24:48;;;;;;;2.00;0.53;;;;;;;6.00;100.00;100848.19;5000997;28;20443;-79
2020/12/01 09:27:16;;;;;;;3.97;1.10;;;;;;;6.05;100.00;100851.47;4987226;28;20797;-79
2020/12/01 09:29:48;;;;;;;2.40;0.50;;;;;;;6.15;100.00;100858.38;5005719;28;20512;-79
2020/12/01 09:32:24;;;;;;;3.10;0.77;;;;;;;6.03;100.00;100855.56;5006804;28;20455;-78
2020/12/01 09:35:15;;;;;;;3.27;0.70;;;;;;;6.15;100.00;100859.16;4995470;28;20530;-80
2020/12/01 09:37:41;;;;;;;3.00;0.60;;;;;;;6.18;100.00;100850.50;5000072;28;20448;-80
2020/12/01 09:40:06;;;;;;;2.00;0.60;;;;;;;6.21;100.00;100857.84;5001406;28;20415;-79
2020/12/01 09:42:37;;;;;;;3.30;0.57;;;;;;;6.09;100.00;100868.47;4997372;28;20184;-80
2020/12/01 09:45:11;;;;;;;2.77;0.50;;;;;;;6.16;100.00;100866.06;4999193;28;20598;-79
2020/12/01 09:47:44;;;;;;;2.40;0.30;;;;;;;6.19;100.00;100860.06;4988963;28;20454;-78
2020/12/01 09:50:19;;;;;;;3.03;0.70;;;;;;;6.21;100.00;100865.88;5004774;28;20908;-80
2020/12/01 09:55:37;;;;;;;2.57;0.40;;;;;;;6.30;100.00;100874.69;5003624;28;20424;-82
2020/12/01 10:09:32;;;;;;;2.90;0.73;;;;;;;6.25;100.00;100890.88;4955680;28;20454;-80
2020/12/01 10:20:39;;;;;;;1.87;0.70;;;;;;;6.23;100.00;100893.09;4986047;28;20723;-79
2020/12/01 10:29:32;;;;;;;2.43;0.40;;;;;;;6.48;100.00;100894.13;4969616;28;20445;-80
2020/12/01 10:36:26;;;;;;;3.30;0.70;;;;;;;6.45;100.00;100902.75;4963013;28;20508;-80
2020/12/01 10:38:52;;;;;;;3.00;0.50;;;;;;;6.43;100.00;100907.66;4948957;28;20190;-79
2020/12/01 10:41:17;;;;;;;2.13;0.50;;;;;;;6.37;100.00;100915.06;4936839;28;20855;-79
2020/12/01 10:43:43;;;;;;;2.73;0.53;;;;;;;6.45;100.00;100908.13;4954453;28;20471;-80
2020/12/01 10:46:13;;;;;;;2.10;0.50;;;;;;;6.42;100.00;100907.97;4931644;28;20237;-80
2020/12/01 10:48:38;;;;;;;1.90;0.47;;;;;;;6.51;100.00;100914.84;4980249;28;20536;-79
2020/12/01 10:51:25;;;;;;;2.57;0.73;;;;;;;6.53;100.00;100915.31;4937738;28;20544;-80
2020/12/01 10:53:50;;;;;;;2.13;0.43;;;;;;;6.58;100.00;100925.84;4978816;28;20205;-79
2020/12/01 10:56:16;;;;;;;2.87;0.70;;;;;;;6.55;100.00;100920.34;4975105;28;20499;-80
2020/12/01 10:58:42;;;;;;;2.47;0.40;;;;;;;6.60;100.00;100926.31;4992524;28;20248;-82
2020/12/01 11:01:07;;;;;;;3.90;0.63;;;;;;;6.50;100.00;100929.34;4976681;28;20547;-79
2020/12/01 11:03:33;;;;;;;2.83;0.43;;;;;;;6.53;100.00;100928.69;4976215;28;20225;-80
2020/12/01 11:05:58;;;;;;;3.93;0.97;;;;;;;6.58;100.00;100936.53;4997479;28;20799;-81
2020/12/01 11:08:24;;;;;;;4.93;0.90;;;;;;;6.49;100.00;100937.69;4993170;28;20197;-79
2020/12/01 11:10:49;;;;;;;2.27;0.33;;;;;;;6.58;100.00;100938.44;5022594;28;20273;-80
2020/12/01 11:13:15;;;;;;;3.30;0.70;;;;;;;6.50;100.00;100942.72;5047649;28;20179;-80
2020/12/01 11:15:41;;;;;;;3.30;0.97;;;;;;;6.61;100.00;100941.25;5011274;28;20211;-80
2020/12/01 11:18:06;;;;;;;3.20;0.80;;;;;;;6.69;100.00;100945.00;5048338;28;20191;-79
2020/12/01 11:20:33;;;;;;;3.10;0.97;;;;;;;6.63;100.00;100954.31;5043191;28;20187;-78
2020/12/01 11:22:59;;;;;;;2.17;0.70;;;;;;;6.58;100.00;100957.19;5052752;28;20191;-79
2020/12/01 11:25:25;;;;;;;2.40;0.60;;;;;;;6.64;100.00;100956.66;5030801;28;20472;-78
2020/12/01 11:27:50;;;;;;;3.10;0.67;;;;;;;6.62;100.00;100966.13;5036998;28;20199;-79
2020/12/01 11:30:19;;;;;;;2.50;0.60;;;;;;;6.55;100.00;100966.63;5038080;28;20793;-79
2020/12/01 11:32:45;;;;;;;2.60;0.60;;;;;;;6.61;100.00;100959.19;5009379;28;20181;-78
2020/12/01 11:35:11;;;;;;;2.27;0.27;;;;;;;6.60;100.00;100958.41;5010911;28;20501;-79
2020/12/01 11:37:37;;;;;;;2.03;0.63;;;;;;;6.64;100.00;100948.63;5006433;28;20529;-80
2020/12/01 11:40:05;;;;;;;2.17;0.37;;;;;;;6.53;100.00;100955.44;4991238;28;20903;-80
2020/12/01 11:42:31;;;;;;;2.87;0.60;;;;;;;6.61;100.00;100954.66;5012456;28;20835;-80
2020/12/01 11:44:56;;;;;;;3.93;0.67;;;;;;;6.45;100.00;100963.50;5004117;28;20482;-79
2020/12/01 11:47:22;;;;;;;1.97;0.50;;;;;;;6.56;100.00;100972.75;5002240;28;20551;-80
2020/12/01 11:49:47;;;;;;;2.60;0.53;;;;;;;6.65;100.00;100974.31;5010712;28;20217;-80
2020/12/01 11:52:13;;;;;;;2.97;0.60;;;;;;;6.71;100.00;100967.66;5000194;28;20196;-81
2020/12/01 11:54:38;;;;;;;2.40;0.80;;;;;;;6.71;100.00;100970.34;4990655;28;20246;-78
2020/12/01 11:57:04;;;;;;;2.37;0.80;;;;;;;6.70;100.00;100976.78;4993613;28;20736;-79
2020/12/01 11:59:30;;;;;;;2.90;0.77;;;;;;;6.74;100.00;100976.94;5010948;28;20188;-80
2020/12/01 12:01:55;;;;;;;2.43;0.60;;;;;;;6.53;100.00;100987.56;5009190;28;20442;-79
2020/12/01 12:04:21;;;;;;;1.60;0.27;;;;;;;6.54;100.00;100994.50;5009312;28;20188;-79
2020/12/01 12:06:46;;;;;;;2.57;0.60;;;;;;;6.65;100.00;100992.25;5011553;28;20213;-78
2020/12/01 12:09:12;;;;;;;3.10;0.93;;;;;;;6.62;100.00;100990.97;5006759;28;20260;-80
2020/12/01 12:11:37;;;;;;;1.90;0.47;;;;;;;6.70;100.00;100992.84;5003656;28;20200;-79
2020/12/01 12:14:04;;;;;;;2.07;0.50;;;;;;;6.71;100.00;100996.31;5008201;28;20583;-78
2020/12/01 12:16:29;;;;;;;2.90;0.60;;;;;;;6.74;100.00;101003.69;5011650;28;20217;-79
2020/12/01 12:18:55;;;;;;;2.60;0.70;;;;;;;6.73;100.00;101002.94;5010889;28;20450;-78
2020/12/01 12:21:21;;;;;;;2.40;0.50;;;;;;;6.75;100.00;101006.06;4993598;28;20189;-79
2020/12/01 12:23:48;;;;;;;3.30;0.67;;;;;;;6.76;100.00;101004.16;5013247;28;20193;-81
2020/12/01 12:26:14;;;;;;;2.47;0.60;;;;;;;6.77;100.00;101014.56;5014964;28;20458;-79
2020/12/01 12:28:40;;;;;;;2.10;0.33;;;;;;;6.81;100.00;101018.19;5009913;28;20454;-80
2020/12/01 12:31:06;;;;;;;3.70;0.93;;;;;;;6.81;100.00;101026.19;5006860;28;20538;-81